CNS weather

Cairns International Airport
Cairns, Queensland, Australia

Public forecast

Using degrees Celsius for public forecast. Weather courtesy of forecast.io.

METAR (pilot weather report)

Retrieved 2019/04/19 04:30 UTC (20 minutes ago):

YBCS 190430Z AUTO 15012KT 050V180 9999 // OVC052 26/21 Q1014 RMK RF00.0/000.2 INTER 0430/0730 3000 SHRA FEW008 BKN018

TAF (pilot weather forecast)

Forecast is more than 12 hours old.

Retrieved 2019/04/18 00:00 UTC (1 day ago):

TAF YBCS 182314Z 1900/1924 15012KT 9999 -SHRA SCT025 BKN040 FM190200 12014KT 9999 -SHRA FEW025 BKN050 FM190800 16010KT 9999 -SHRA SCT025 BKN045 INTER 1900/1918 3000 SHRA FEW008 BKN018